sensor_id;sensor_type;location;lat;lon;timestamp;pressure;altitude;pressure_sealevel;temperature;humidity
63500;BME280;49654;51.142;14.924;2023-07-31T00:02:03;98918.06;;;15.86;83.58
63500;BME280;49654;51.142;14.924;2023-07-31T00:04:31;98911.44;;;15.84;82.54
63500;BME280;49654;51.142;14.924;2023-07-31T00:06:58;98885.41;;;15.64;82.30
63500;BME280;49654;51.142;14.924;2023-07-31T00:09:26;98909.63;;;15.84;82.05
63500;BME280;49654;51.142;14.924;2023-07-31T00:11:53;98846.72;;;15.41;81.69
63500;BME280;49654;51.142;14.924;2023-07-31T00:14:20;98882.00;;;15.63;81.36
63500;BME280;49654;51.142;14.924;2023-07-31T00:16:47;98853.66;;;15.28;81.03
63500;BME280;49654;51.142;14.924;2023-07-31T00:19:14;98888.44;;;15.61;81.61
63500;BME280;49654;51.142;14.924;2023-07-31T00:21:41;98872.06;;;15.47;81.51
63500;BME280;49654;51.142;14.924;2023-07-31T00:24:08;98914.06;;;15.84;81.35
63500;BME280;49654;51.142;14.924;2023-07-31T00:26:37;98923.34;;;15.80;80.97
63500;BME280;49654;51.142;14.924;2023-07-31T00:29:03;98897.28;;;15.66;81.34
63500;BME280;49654;51.142;14.924;2023-07-31T00:31:30;98916.28;;;15.80;81.77
63500;BME280;49654;51.142;14.924;2023-07-31T00:33:57;98889.50;;;15.53;82.32
63500;BME280;49654;51.142;14.924;2023-07-31T00:36:24;98892.47;;;15.63;81.87
63500;BME280;49654;51.142;14.924;2023-07-31T00:38:51;98901.38;;;15.56;82.30
63500;BME280;49654;51.142;14.924;2023-07-31T00:41:18;98830.66;;;15.12;82.86
63500;BME280;49654;51.142;14.924;2023-07-31T00:43:46;98898.31;;;15.65;82.98
63500;BME280;49654;51.142;14.924;2023-07-31T00:46:13;98901.94;;;15.64;83.36
63500;BME280;49654;51.142;14.924;2023-07-31T00:48:40;98766.13;;;14.74;82.63
63500;BME280;49654;51.142;14.924;2023-07-31T00:51:08;98871.44;;;15.45;83.08
63500;BME280;49654;51.142;14.924;2023-07-31T00:53:35;98901.16;;;15.57;83.13
63500;BME280;49654;51.142;14.924;2023-07-31T00:56:03;98875.72;;;15.39;82.88
63500;BME280;49654;51.142;14.924;2023-07-31T00:58:30;98898.53;;;15.57;83.19
63500;BME280;49654;51.142;14.924;2023-07-31T01:00:59;98903.78;;;15.57;83.27
63500;BME280;49654;51.142;14.924;2023-07-31T01:03:26;98846.34;;;15.12;83.61
63500;BME280;49654;51.142;14.924;2023-07-31T01:06:00;98906.88;;;15.47;83.33
63500;BME280;49654;51.142;14.924;2023-07-31T01:08:33;98831.53;;;14.99;82.89
63500;BME280;49654;51.142;14.924;2023-07-31T01:11:11;98895.97;;;15.50;82.39
63500;BME280;49654;51.142;14.924;2023-07-31T01:13:42;98862.91;;;15.31;80.97
63500;BME280;49654;51.142;14.924;2023-07-31T01:16:11;98836.22;;;15.16;80.15
63500;BME280;49654;51.142;14.924;2023-07-31T01:18:38;98876.28;;;15.41;80.32
63500;BME280;49654;51.142;14.924;2023-07-31T01:21:17;98875.47;;;15.47;79.84
63500;BME280;49654;51.142;14.924;2023-07-31T01:24:05;98895.13;;;15.57;78.85
63500;BME280;49654;51.142;14.924;2023-07-31T01:26:38;98878.50;;;15.44;78.63
63500;BME280;49654;51.142;14.924;2023-07-31T01:29:09;98888.59;;;15.41;78.31
63500;BME280;49654;51.142;14.924;2023-07-31T01:31:37;98880.97;;;15.33;79.46
63500;BME280;49654;51.142;14.924;2023-07-31T01:34:08;98800.50;;;14.78;80.50
63500;BME280;49654;51.142;14.924;2023-07-31T01:36:36;98869.94;;;15.31;80.96
63500;BME280;49654;51.142;14.924;2023-07-31T01:39:03;98808.53;;;14.76;81.57
63500;BME280;49654;51.142;14.924;2023-07-31T01:41:30;98873.06;;;15.14;81.97
63500;BME280;49654;51.142;14.924;2023-07-31T01:43:59;98836.94;;;14.98;81.77
63500;BME280;49654;51.142;14.924;2023-07-31T01:46:26;98886.31;;;15.19;81.86
63500;BME280;49654;51.142;14.924;2023-07-31T01:48:53;98882.41;;;15.35;80.96
63500;BME280;49654;51.142;14.924;2023-07-31T01:51:20;98755.78;;;14.55;80.38
63500;BME280;49654;51.142;14.924;2023-07-31T01:53:47;98853.72;;;15.47;78.76
63500;BME280;49654;51.142;14.924;2023-07-31T01:56:14;98833.09;;;15.32;78.84
63500;BME280;49654;51.142;14.924;2023-07-31T01:58:41;98864.28;;;15.65;78.65
63500;BME280;49654;51.142;14.924;2023-07-31T02:01:09;98857.91;;;15.55;78.29
63500;BME280;49654;51.142;14.924;2023-07-31T02:03:36;98840.66;;;15.47;77.15
63500;BME280;49654;51.142;14.924;2023-07-31T02:06:03;98769.69;;;15.12;77.67
63500;BME280;49654;51.142;14.924;2023-07-31T02:08:30;98772.03;;;15.20;78.12
63500;BME280;49654;51.142;14.924;2023-07-31T02:10:57;98840.16;;;15.57;78.10
63500;BME280;49654;51.142;14.924;2023-07-31T02:13:24;98842.47;;;15.71;78.02
63500;BME280;49654;51.142;14.924;2023-07-31T02:15:51;98837.81;;;15.48;78.50
63500;BME280;49654;51.142;14.924;2023-07-31T02:18:20;98778.75;;;15.09;78.24
63500;BME280;49654;51.142;14.924;2023-07-31T02:20:49;98844.72;;;15.43;79.06
63500;BME280;49654;51.142;14.924;2023-07-31T02:23:16;98853.47;;;15.55;78.80
63500;BME280;49654;51.142;14.924;2023-07-31T02:25:43;98775.84;;;14.92;79.23
63500;BME280;49654;51.142;14.924;2023-07-31T02:28:11;98823.13;;;15.22;79.62
63500;BME280;49654;51.142;14.924;2023-07-31T02:30:38;98852.00;;;15.66;79.12
63500;BME280;49654;51.142;14.924;2023-07-31T02:33:05;98845.09;;;15.71;78.45
63500;BME280;49654;51.142;14.924;2023-07-31T02:35:33;98845.25;;;15.76;76.90
63500;BME280;49654;51.142;14.924;2023-07-31T02:38:00;98841.25;;;15.74;77.44
63500;BME280;49654;51.142;14.924;2023-07-31T02:40:27;98844.94;;;15.66;77.52
63500;BME280;49654;51.142;14.924;2023-07-31T02:42:54;98823.69;;;15.49;77.71
63500;BME280;49654;51.142;14.924;2023-07-31T02:45:22;98841.91;;;15.63;77.85
63500;BME280;49654;51.142;14.924;2023-07-31T02:47:49;98786.88;;;15.26;77.84
63500;BME280;49654;51.142;14.924;2023-07-31T02:50:16;98826.84;;;15.58;77.82
63500;BME280;49654;51.142;14.924;2023-07-31T02:52:44;98825.53;;;15.49;77.96
63500;BME280;49654;51.142;14.924;2023-07-31T02:55:11;98849.16;;;15.67;78.06
63500;BME280;49654;51.142;14.924;2023-07-31T02:57:38;98839.75;;;15.85;77.85
63500;BME280;49654;51.142;14.924;2023-07-31T03:00:06;98849.19;;;15.86;76.76
63500;BME280;49654;51.142;14.924;2023-07-31T03:02:33;98779.03;;;15.51;76.94
63500;BME280;49654;51.142;14.924;2023-07-31T03:05:01;98850.66;;;16.00;76.60
63500;BME280;49654;51.142;14.924;2023-07-31T03:07:28;98773.28;;;15.61;75.86
63500;BME280;49654;51.142;14.924;2023-07-31T03:09:57;98830.00;;;15.92;75.30
63500;BME280;49654;51.142;14.924;2023-07-31T03:12:24;98843.53;;;16.07;75.60
63500;BME280;49654;51.142;14.924;2023-07-31T03:14:51;98844.13;;;16.09;75.72
63500;BME280;49654;51.142;14.924;2023-07-31T03:17:18;98830.88;;;16.04;75.47
63500;BME280;49654;51.142;14.924;2023-07-31T03:19:45;98847.34;;;16.11;75.44
63500;BME280;49654;51.142;14.924;2023-07-31T03:22:12;98849.16;;;16.11;75.39
63500;BME280;49654;51.142;14.924;2023-07-31T03:24:39;98803.94;;;15.97;75.12
63500;BME280;49654;51.142;14.924;2023-07-31T03:27:07;98806.22;;;15.93;75.23
63500;BME280;49654;51.142;14.924;2023-07-31T03:29:34;98830.88;;;16.04;74.95
63500;BME280;49654;51.142;14.924;2023-07-31T03:32:01;98828.41;;;16.09;74.36
63500;BME280;49654;51.142;14.924;2023-07-31T03:34:30;98734.69;;;15.56;74.22
63500;BME280;49654;51.142;14.924;2023-07-31T03:36:57;98838.31;;;16.25;74.49
63500;BME280;49654;51.142;14.924;2023-07-31T03:39:24;98791.03;;;16.02;73.70
63500;BME280;49654;51.142;14.924;2023-07-31T03:41:51;98839.09;;;16.26;73.28
63500;BME280;49654;51.142;14.924;2023-07-31T03:44:20;98832.50;;;16.23;73.06
63500;BME280;49654;51.142;14.924;2023-07-31T03:46:47;98831.38;;;16.31;72.83
63500;BME280;49654;51.142;14.924;2023-07-31T03:49:14;98760.75;;;15.88;73.12
63500;BME280;49654;51.142;14.924;2023-07-31T03:51:41;98824.34;;;16.32;73.25
63500;BME280;49654;51.142;14.924;2023-07-31T03:54:08;98782.78;;;15.98;72.41
63500;BME280;49654;51.142;14.924;2023-07-31T03:56:35;98801.34;;;16.15;72.63
63500;BME280;49654;51.142;14.924;2023-07-31T03:59:04;98768.31;;;15.96;72.62
63500;BME280;49654;51.142;14.924;2023-07-31T04:01:32;98796.53;;;16.31;71.85
63500;BME280;49654;51.142;14.924;2023-07-31T04:03:59;98813.69;;;16.26;72.03
63500;BME280;49654;51.142;14.924;2023-07-31T04:06:26;98809.41;;;16.32;71.90
63500;BME280;49654;51.142;14.924;2023-07-31T04:08:53;98786.06;;;16.12;72.01
63500;BME280;49654;51.142;14.924;2023-07-31T04:11:20;98727.59;;;15.82;72.22
63500;BME280;49654;51.142;14.924;2023-07-31T04:13:47;98803.69;;;16.23;72.53
63500;BME280;49654;51.142;14.924;2023-07-31T04:16:14;98741.72;;;15.81;72.96
63500;BME280;49654;51.142;14.924;2023-07-31T04:18:42;98746.19;;;15.92;72.62
63500;BME280;49654;51.142;14.924;2023-07-31T04:21:09;98818.03;;;16.51;72.76
63500;BME280;49654;51.142;14.924;2023-07-31T04:23:37;98816.94;;;16.59;72.75
63500;BME280;49654;51.142;14.924;2023-07-31T04:26:04;98824.88;;;16.52;73.08
63500;BME280;49654;51.142;14.924;2023-07-31T04:28:31;98711.75;;;15.76;73.00
63500;BME280;49654;51.142;14.924;2023-07-31T04:30:58;98749.66;;;16.22;72.52
63500;BME280;49654;51.142;14.924;2023-07-31T04:33:25;98748.13;;;16.33;72.25
63500;BME280;49654;51.142;14.924;2023-07-31T04:35:54;98795.97;;;16.59;72.21
63500;BME280;49654;51.142;14.924;2023-07-31T04:38:21;98818.97;;;16.57;72.47
63500;BME280;49654;51.142;14.924;2023-07-31T04:40:48;98797.38;;;16.43;73.85
63500;BME280;49654;51.142;14.924;2023-07-31T04:43:15;98826.53;;;16.65;73.58
63500;BME280;49654;51.142;14.924;2023-07-31T04:45:44;98825.94;;;16.81;72.77
63500;BME280;49654;51.142;14.924;2023-07-31T04:48:11;98701.00;;;16.15;72.47
63500;BME280;49654;51.142;14.924;2023-07-31T04:50:38;98737.28;;;16.30;73.21
63500;BME280;49654;51.142;14.924;2023-07-31T04:53:07;98787.72;;;16.73;72.57
63500;BME280;49654;51.142;14.924;2023-07-31T04:55:34;98753.91;;;16.53;71.74
63500;BME280;49654;51.142;14.924;2023-07-31T04:58:01;98819.63;;;17.12;71.21
63500;BME280;49654;51.142;14.924;2023-07-31T05:00:28;98818.47;;;17.08;71.01
63500;BME280;49654;51.142;14.924;2023-07-31T05:02:55;98805.38;;;17.08;70.68
63500;BME280;49654;51.142;14.924;2023-07-31T05:05:22;98813.72;;;17.05;70.59
63500;BME280;49654;51.142;14.924;2023-07-31T05:07:49;98767.69;;;16.91;70.59
63500;BME280;49654;51.142;14.924;2023-07-31T05:10:17;98769.31;;;16.62;71.28
63500;BME280;49654;51.142;14.924;2023-07-31T05:12:45;98826.78;;;16.93;72.14
63500;BME280;49654;51.142;14.924;2023-07-31T05:15:12;98828.81;;;16.91;72.10
63500;BME280;49654;51.142;14.924;2023-07-31T05:17:39;98755.22;;;16.44;72.66
63500;BME280;49654;51.142;14.924;2023-07-31T05:20:07;98736.72;;;16.27;73.18
63500;BME280;49654;51.142;14.924;2023-07-31T05:22:34;98807.97;;;16.66;72.93
63500;BME280;49654;51.142;14.924;2023-07-31T05:25:02;98833.13;;;16.86;72.52
63500;BME280;49654;51.142;14.924;2023-07-31T05:27:31;98776.22;;;16.56;72.05
63500;BME280;49654;51.142;14.924;2023-07-31T05:29:58;98770.44;;;16.66;71.46
63500;BME280;49654;51.142;14.924;2023-07-31T05:32:25;98791.09;;;16.92;71.54
63500;BME280;49654;51.142;14.924;2023-07-31T05:34:52;98817.69;;;16.96;72.42
63500;BME280;49654;51.142;14.924;2023-07-31T05:37:20;98718.03;;;16.24;73.09
63500;BME280;49654;51.142;14.924;2023-07-31T05:39:47;98844.44;;;16.86;73.46
63500;BME280;49654;51.142;14.924;2023-07-31T05:42:14;98739.41;;;16.21;74.11
63500;BME280;49654;51.142;14.924;2023-07-31T05:44:42;98820.50;;;16.94;73.67
63500;BME280;49654;51.142;14.924;2023-07-31T05:47:10;98822.28;;;16.82;73.42
63500;BME280;49654;51.142;14.924;2023-07-31T05:49:37;98796.44;;;16.86;73.45
63500;BME280;49654;51.142;14.924;2023-07-31T05:52:04;98775.41;;;16.74;73.83
63500;BME280;49654;51.142;14.924;2023-07-31T05:54:32;98820.56;;;17.06;74.26
63500;BME280;49654;51.142;14.924;2023-07-31T05:56:59;98822.25;;;17.12;74.96
63500;BME280;49654;51.142;14.924;2023-07-31T05:59:26;98824.00;;;17.18;74.57
63500;BME280;49654;51.142;14.924;2023-07-31T06:01:54;98826.16;;;17.21;74.83
63500;BME280;49654;51.142;14.924;2023-07-31T06:04:21;98811.38;;;17.39;74.18
63500;BME280;49654;51.142;14.924;2023-07-31T06:06:51;98716.28;;;16.90;73.48
63500;BME280;49654;51.142;14.924;2023-07-31T06:09:18;98777.47;;;17.49;71.94
63500;BME280;49654;51.142;14.924;2023-07-31T06:11:46;98793.69;;;17.93;71.61
63500;BME280;49654;51.142;14.924;2023-07-31T06:14:13;98783.75;;;17.83;71.13
63500;BME280;49654;51.142;14.924;2023-07-31T06:16:40;98808.63;;;18.04;71.98
63500;BME280;49654;51.142;14.924;2023-07-31T06:19:08;98766.94;;;17.72;70.96
63500;BME280;49654;51.142;14.924;2023-07-31T06:21:36;98817.59;;;18.20;70.46
63500;BME280;49654;51.142;14.924;2023-07-31T06:24:04;98743.78;;;17.69;71.49
63500;BME280;49654;51.142;14.924;2023-07-31T06:26:31;98804.31;;;18.38;70.52
63500;BME280;49654;51.142;14.924;2023-07-31T06:28:58;98798.13;;;18.33;70.49
63500;BME280;49654;51.142;14.924;2023-07-31T06:31:25;98791.91;;;18.22;70.50
63500;BME280;49654;51.142;14.924;2023-07-31T06:33:52;98703.72;;;17.50;71.02
63500;BME280;49654;51.142;14.924;2023-07-31T06:36:21;98729.47;;;18.00;71.13
63500;BME280;49654;51.142;14.924;2023-07-31T06:38:48;98720.72;;;17.71;71.80
63500;BME280;49654;51.142;14.924;2023-07-31T06:41:16;98772.75;;;17.98;72.43
63500;BME280;49654;51.142;14.924;2023-07-31T06:43:43;98726.34;;;17.28;72.57
63500;BME280;49654;51.142;14.924;2023-07-31T06:46:10;98750.56;;;17.30;74.26
63500;BME280;49654;51.142;14.924;2023-07-31T06:48:40;98658.53;;;16.55;74.18
63500;BME280;49654;51.142;14.924;2023-07-31T06:51:07;98735.09;;;16.98;75.25
63500;BME280;49654;51.142;14.924;2023-07-31T06:53:35;98802.56;;;17.45;75.64
63500;BME280;49654;51.142;14.924;2023-07-31T06:56:02;98796.72;;;17.19;74.64
63500;BME280;49654;51.142;14.924;2023-07-31T06:58:29;98780.13;;;16.95;76.02
63500;BME280;49654;51.142;14.924;2023-07-31T07:00:56;98767.97;;;17.01;76.34
63500;BME280;49654;51.142;14.924;2023-07-31T07:03:24;98812.03;;;17.46;75.90
63500;BME280;49654;51.142;14.924;2023-07-31T07:05:51;98691.41;;;16.81;75.20
63500;BME280;49654;51.142;14.924;2023-07-31T07:08:18;98770.41;;;17.26;74.73
63500;BME280;49654;51.142;14.924;2023-07-31T07:10:46;98744.81;;;17.21;73.96
63500;BME280;49654;51.142;14.924;2023-07-31T07:13:13;98722.94;;;17.27;72.72
63500;BME280;49654;51.142;14.924;2023-07-31T07:15:41;98807.38;;;17.36;73.45
63500;BME280;49654;51.142;14.924;2023-07-31T07:18:08;98784.31;;;17.38;73.60
63500;BME280;49654;51.142;14.924;2023-07-31T07:20:36;98783.31;;;17.74;72.53
63500;BME280;49654;51.142;14.924;2023-07-31T07:23:03;98734.81;;;17.30;72.10
63500;BME280;49654;51.142;14.924;2023-07-31T07:25:30;98811.59;;;17.96;72.53
63500;BME280;49654;51.142;14.924;2023-07-31T07:27:58;98802.84;;;17.90;70.74
63500;BME280;49654;51.142;14.924;2023-07-31T07:30:25;98767.66;;;17.80;71.31
63500;BME280;49654;51.142;14.924;2023-07-31T07:32:52;98774.03;;;17.95;70.98
63500;BME280;49654;51.142;14.924;2023-07-31T07:35:19;98775.13;;;18.11;70.68
63500;BME280;49654;51.142;14.924;2023-07-31T07:37:48;98743.75;;;17.93;69.65
63500;BME280;49654;51.142;14.924;2023-07-31T07:40:15;98785.94;;;18.26;69.75
63500;BME280;49654;51.142;14.924;2023-07-31T07:42:42;98792.44;;;18.24;69.98
63500;BME280;49654;51.142;14.924;2023-07-31T07:45:11;98805.88;;;18.51;70.41
63500;BME280;49654;51.142;14.924;2023-07-31T07:47:40;98726.97;;;17.94;71.59
63500;BME280;49654;51.142;14.924;2023-07-31T07:50:08;98786.84;;;18.32;70.94
63500;BME280;49654;51.142;14.924;2023-07-31T07:52:35;98690.78;;;17.72;71.31
63500;BME280;49654;51.142;14.924;2023-07-31T07:55:03;98742.97;;;17.92;71.17
63500;BME280;49654;51.142;14.924;2023-07-31T07:57:30;98773.06;;;18.13;71.83
63500;BME280;49654;51.142;14.924;2023-07-31T07:59:57;98810.91;;;18.12;72.57
63500;BME280;49654;51.142;14.924;2023-07-31T08:02:25;98793.06;;;18.14;72.61
63500;BME280;49654;51.142;14.924;2023-07-31T08:04:52;98799.59;;;18.12;72.78
63500;BME280;49654;51.142;14.924;2023-07-31T08:07:19;98785.00;;;17.81;73.00
63500;BME280;49654;51.142;14.924;2023-07-31T08:09:46;98767.66;;;17.56;73.71
63500;BME280;49654;51.142;14.924;2023-07-31T08:12:13;98798.03;;;17.87;74.07
63500;BME280;49654;51.142;14.924;2023-07-31T08:14:40;98786.63;;;17.82;73.75
63500;BME280;49654;51.142;14.924;2023-07-31T08:17:07;98798.75;;;18.23;72.94
63500;BME280;49654;51.142;14.924;2023-07-31T08:19:37;98811.72;;;18.41;71.42
63500;BME280;49654;51.142;14.924;2023-07-31T08:22:04;98773.69;;;18.32;71.63
63500;BME280;49654;51.142;14.924;2023-07-31T08:24:31;98788.31;;;18.28;70.79
63500;BME280;49654;51.142;14.924;2023-07-31T08:26:58;98799.41;;;18.42;70.13
63500;BME280;49654;51.142;14.924;2023-07-31T08:29:25;98798.44;;;18.48;71.70
63500;BME280;49654;51.142;14.924;2023-07-31T08:31:52;98777.56;;;18.70;69.63
63500;BME280;49654;51.142;14.924;2023-07-31T08:34:19;98799.22;;;19.22;67.99
63500;BME280;49654;51.142;14.924;2023-07-31T08:36:48;98792.50;;;19.65;66.92
63500;BME280;49654;51.142;14.924;2023-07-31T08:39:14;98796.09;;;19.76;65.92
63500;BME280;49654;51.142;14.924;2023-07-31T08:41:41;98796.34;;;20.40;64.36
63500;BME280;49654;51.142;14.924;2023-07-31T08:44:09;98789.38;;;20.07;63.38
63500;BME280;49654;51.142;14.924;2023-07-31T08:46:37;98803.91;;;19.88;63.97
63500;BME280;49654;51.142;14.924;2023-07-31T08:49:05;98796.53;;;20.12;63.84
63500;BME280;49654;51.142;14.924;2023-07-31T08:51:33;98797.91;;;20.14;63.13
63500;BME280;49654;51.142;14.924;2023-07-31T08:54:02;98793.28;;;19.83;64.08
63500;BME280;49654;51.142;14.924;2023-07-31T08:56:31;98808.00;;;19.45;63.94
63500;BME280;49654;51.142;14.924;2023-07-31T08:58:59;98794.53;;;19.24;65.55
63500;BME280;49654;51.142;14.924;2023-07-31T09:01:29;98794.78;;;19.23;66.21
63500;BME280;49654;51.142;14.924;2023-07-31T09:03:58;98791.25;;;19.51;65.54
63500;BME280;49654;51.142;14.924;2023-07-31T09:06:27;98786.28;;;19.71;64.08
63500;BME280;49654;51.142;14.924;2023-07-31T09:08:55;98788.47;;;19.96;62.71
63500;BME280;49654;51.142;14.924;2023-07-31T09:11:24;98785.63;;;20.03;63.04
63500;BME280;49654;51.142;14.924;2023-07-31T09:13:52;98795.50;;;20.57;61.33
63500;BME280;49654;51.142;14.924;2023-07-31T09:16:27;98788.19;;;20.91;61.50
63500;BME280;49654;51.142;14.924;2023-07-31T09:18:54;98787.75;;;21.04;60.20
63500;BME280;49654;51.142;14.924;2023-07-31T09:21:23;98777.81;;;21.48;58.90
63500;BME280;49654;51.142;14.924;2023-07-31T09:23:51;98732.72;;;20.59;59.34
63500;BME280;49654;51.142;14.924;2023-07-31T09:26:31;98781.88;;;20.43;60.62
63500;BME280;49654;51.142;14.924;2023-07-31T09:28:58;98787.28;;;20.53;61.00
63500;BME280;49654;51.142;14.924;2023-07-31T09:31:33;98790.88;;;20.69;61.38
63500;BME280;49654;51.142;14.924;2023-07-31T09:34:00;98792.03;;;20.78;61.35
63500;BME280;49654;51.142;14.924;2023-07-31T09:36:29;98776.75;;;20.85;61.11
63500;BME280;49654;51.142;14.924;2023-07-31T09:39:01;98786.91;;;20.66;62.48
63500;BME280;49654;51.142;14.924;2023-07-31T09:41:30;98792.38;;;20.87;61.40
63500;BME280;49654;51.142;14.924;2023-07-31T09:43:57;98786.97;;;21.04;59.97
63500;BME280;49654;51.142;14.924;2023-07-31T09:46:27;98786.25;;;21.13;60.47
63500;BME280;49654;51.142;14.924;2023-07-31T09:49:03;98718.16;;;20.78;59.94
63500;BME280;49654;51.142;14.924;2023-07-31T09:51:30;98783.13;;;21.16;60.11
63500;BME280;49654;51.142;14.924;2023-07-31T09:53:57;98775.72;;;21.18;59.25
63500;BME280;49654;51.142;14.924;2023-07-31T09:56:25;98755.19;;;21.25;58.73
63500;BME280;49654;51.142;14.924;2023-07-31T09:58:54;98773.06;;;21.98;58.68
63500;BME280;49654;51.142;14.924;2023-07-31T10:01:22;98764.75;;;21.79;57.28
63500;BME280;49654;51.142;14.924;2023-07-31T10:03:49;98761.13;;;21.95;58.57
63500;BME280;49654;51.142;14.924;2023-07-31T10:06:16;98758.75;;;23.08;55.62
63500;BME280;49654;51.142;14.924;2023-07-31T10:08:47;98743.38;;;23.25;53.59
63500;BME280;49654;51.142;14.924;2023-07-31T10:11:14;98741.97;;;23.63;52.51
63500;BME280;49654;51.142;14.924;2023-07-31T10:13:42;98743.63;;;23.44;52.39
63500;BME280;49654;51.142;14.924;2023-07-31T10:16:12;98738.56;;;22.45;54.18
63500;BME280;49654;51.142;14.924;2023-07-31T10:18:40;98743.59;;;22.37;56.25
63500;BME280;49654;51.142;14.924;2023-07-31T10:21:08;98743.53;;;22.21;55.93
63500;BME280;49654;51.142;14.924;2023-07-31T10:23:35;98744.25;;;22.02;57.44
63500;BME280;49654;51.142;14.924;2023-07-31T10:26:03;98739.06;;;22.27;57.67
63500;BME280;49654;51.142;14.924;2023-07-31T10:28:32;98726.16;;;22.87;56.35
63500;BME280;49654;51.142;14.924;2023-07-31T10:31:01;98698.38;;;22.64;53.83
63500;BME280;49654;51.142;14.924;2023-07-31T10:33:30;98698.63;;;23.03;54.18
63500;BME280;49654;51.142;14.924;2023-07-31T10:36:12;98735.47;;;23.05;53.39
63500;BME280;49654;51.142;14.924;2023-07-31T10:38:40;98735.16;;;23.32;53.04
63500;BME280;49654;51.142;14.924;2023-07-31T10:41:10;98732.94;;;23.59;53.30
63500;BME280;49654;51.142;14.924;2023-07-31T10:43:37;98718.41;;;23.52;52.88
63500;BME280;49654;51.142;14.924;2023-07-31T10:46:07;98726.13;;;23.48;52.31
63500;BME280;49654;51.142;14.924;2023-07-31T10:48:39;98728.81;;;23.28;52.19
63500;BME280;49654;51.142;14.924;2023-07-31T10:51:08;98721.63;;;23.43;51.93
63500;BME280;49654;51.142;14.924;2023-07-31T10:53:36;98730.38;;;23.44;52.52
63500;BME280;49654;51.142;14.924;2023-07-31T10:56:04;98721.28;;;23.70;52.88
63500;BME280;49654;51.142;14.924;2023-07-31T10:58:32;98732.16;;;23.59;51.77
63500;BME280;49654;51.142;14.924;2023-07-31T11:01:01;98724.59;;;23.21;52.97
63500;BME280;49654;51.142;14.924;2023-07-31T11:03:46;98727.69;;;23.49;53.99
63500;BME280;49654;51.142;14.924;2023-07-31T11:06:15;98710.44;;;23.57;53.01
63500;BME280;49654;51.142;14.924;2023-07-31T11:08:44;98726.97;;;24.08;51.40
63500;BME280;49654;51.142;14.924;2023-07-31T11:11:12;98706.75;;;24.17;50.25
63500;BME280;49654;51.142;14.924;2023-07-31T11:13:41;98720.94;;;24.47;50.63
63500;BME280;49654;51.142;14.924;2023-07-31T11:16:09;98714.16;;;24.20;50.65
63500;BME280;49654;51.142;14.924;2023-07-31T11:18:38;98719.50;;;24.60;50.24
63500;BME280;49654;51.142;14.924;2023-07-31T11:21:07;98728.41;;;24.40;49.61
63500;BME280;49654;51.142;14.924;2023-07-31T11:23:36;98720.09;;;24.07;49.61
63500;BME280;49654;51.142;14.924;2023-07-31T11:26:05;98714.94;;;23.66;51.43
63500;BME280;49654;51.142;14.924;2023-07-31T11:28:33;98710.97;;;23.69;50.36
63500;BME280;49654;51.142;14.924;2023-07-31T11:31:01;98707.75;;;23.72;50.50
63500;BME280;49654;51.142;14.924;2023-07-31T11:33:28;98708.19;;;23.99;51.17
63500;BME280;49654;51.142;14.924;2023-07-31T11:35:55;98698.13;;;24.41;50.02
63500;BME280;49654;51.142;14.924;2023-07-31T11:38:25;98665.59;;;24.25;49.08
63500;BME280;49654;51.142;14.924;2023-07-31T11:40:52;98692.28;;;24.44;48.79
63500;BME280;49654;51.142;14.924;2023-07-31T11:43:20;98682.97;;;24.81;48.54
63500;BME280;49654;51.142;14.924;2023-07-31T11:45:48;98667.88;;;23.97;49.69
63500;BME280;49654;51.142;14.924;2023-07-31T11:48:19;98636.81;;;24.77;47.77
63500;BME280;49654;51.142;14.924;2023-07-31T11:50:48;98688.66;;;24.98;47.33
63500;BME280;49654;51.142;14.924;2023-07-31T11:53:18;98685.72;;;25.29;46.63
63500;BME280;49654;51.142;14.924;2023-07-31T11:55:47;98678.25;;;24.72;47.23
63500;BME280;49654;51.142;14.924;2023-07-31T11:58:15;98671.88;;;24.34;47.66
63500;BME280;49654;51.142;14.924;2023-07-31T12:00:43;98677.16;;;24.00;48.35
63500;BME280;49654;51.142;14.924;2023-07-31T12:03:10;98685.56;;;23.53;49.92
63500;BME280;49654;51.142;14.924;2023-07-31T12:05:38;98676.31;;;24.05;49.30
63500;BME280;49654;51.142;14.924;2023-07-31T12:08:09;98691.09;;;23.61;50.59
63500;BME280;49654;51.142;14.924;2023-07-31T12:10:38;98679.31;;;23.08;49.22
63500;BME280;49654;51.142;14.924;2023-07-31T12:13:09;98686.97;;;23.14;49.32
63500;BME280;49654;51.142;14.924;2023-07-31T12:15:40;98657.03;;;23.24;49.33
63500;BME280;49654;51.142;14.924;2023-07-31T12:18:09;98652.97;;;23.52;49.31
63500;BME280;49654;51.142;14.924;2023-07-31T12:20:41;98583.75;;;22.84;49.08
63500;BME280;49654;51.142;14.924;2023-07-31T12:23:14;98659.41;;;23.31;48.81
63500;BME280;49654;51.142;14.924;2023-07-31T12:25:41;98661.25;;;23.25;47.91
63500;BME280;49654;51.142;14.924;2023-07-31T12:28:09;98659.41;;;23.31;48.99
63500;BME280;49654;51.142;14.924;2023-07-31T12:30:39;98659.69;;;23.94;48.53
63500;BME280;49654;51.142;14.924;2023-07-31T12:33:12;98666.06;;;23.88;47.30
63500;BME280;49654;51.142;14.924;2023-07-31T12:35:44;98670.16;;;23.65;47.91
63500;BME280;49654;51.142;14.924;2023-07-31T12:38:12;98667.50;;;23.70;48.25
63500;BME280;49654;51.142;14.924;2023-07-31T12:40:40;98662.31;;;23.99;48.37
63500;BME280;49654;51.142;14.924;2023-07-31T12:43:08;98655.19;;;24.34;45.97
63500;BME280;49654;51.142;14.924;2023-07-31T12:45:36;98650.34;;;24.75;45.22
63500;BME280;49654;51.142;14.924;2023-07-31T12:48:03;98638.78;;;25.86;41.63
63500;BME280;49654;51.142;14.924;2023-07-31T12:50:30;98637.81;;;26.52;42.53
63500;BME280;49654;51.142;14.924;2023-07-31T12:52:57;98643.59;;;26.73;41.49
63500;BME280;49654;51.142;14.924;2023-07-31T12:55:24;98594.19;;;25.16;43.78